createdAt,value
2019-02-20T00:01:19.905Z,25.80
2019-02-20T00:03:48.743Z,30.40
2019-02-20T00:06:20.032Z,25.00
2019-02-20T00:08:50.075Z,20.57
2019-02-20T00:11:21.621Z,22.43
2019-02-20T00:13:55.291Z,23.10
2019-02-20T00:16:24.782Z,22.90
2019-02-20T00:18:55.603Z,28.50
2019-02-20T00:21:25.398Z,28.03
2019-02-20T00:23:56.049Z,28.53
2019-02-20T00:26:28.216Z,23.73
2019-02-20T00:28:58.862Z,26.93
2019-02-20T00:31:29.216Z,27.40
2019-02-20T00:33:59.879Z,24.67
2019-02-20T00:36:29.169Z,24.73
2019-02-20T00:38:59.124Z,26.10
2019-02-20T00:41:29.345Z,26.37
2019-02-20T00:44:03.128Z,24.17
2019-02-20T00:46:38.898Z,24.00
2019-02-20T00:49:10.829Z,25.73
2019-02-20T00:51:42.478Z,26.97
2019-02-20T00:54:12.000Z,25.93
2019-02-20T00:56:40.555Z,24.23
2019-02-20T00:59:09.150Z,26.10
2019-02-20T01:01:37.855Z,24.30
2019-02-20T01:04:06.555Z,30.80
2019-02-20T01:06:36.286Z,27.07
2019-02-20T01:09:06.672Z,24.40
2019-02-20T01:11:35.212Z,27.13
2019-02-20T01:14:03.852Z,27.03
2019-02-20T01:16:32.437Z,26.70
2019-02-20T01:19:01.332Z,27.17
2019-02-20T01:21:29.813Z,25.77
2019-02-20T01:23:58.333Z,25.33
2019-02-20T01:26:26.957Z,28.17
2019-02-20T01:28:55.559Z,23.67
2019-02-20T01:31:24.106Z,29.72
2019-02-20T01:33:52.760Z,25.97
2019-02-20T01:36:21.261Z,24.47
2019-02-20T01:38:49.874Z,26.82
2019-02-20T01:41:18.491Z,27.73
2019-02-20T01:43:47.081Z,31.13
2019-02-20T01:46:15.672Z,28.85
2019-02-20T01:48:44.281Z,33.80
2019-02-20T01:51:12.822Z,29.67
2019-02-20T01:53:41.424Z,29.10
2019-02-20T01:56:10.017Z,27.62
2019-02-20T01:58:38.565Z,28.85
2019-02-20T02:01:07.219Z,35.23
2019-02-20T02:03:35.765Z,30.52
2019-02-20T02:06:04.252Z,31.73
2019-02-20T02:08:33.453Z,26.40
2019-02-20T02:11:02.391Z,28.15
2019-02-20T02:13:31.024Z,34.03
2019-02-20T02:15:59.696Z,25.88
2019-02-20T02:18:28.203Z,23.95
2019-02-20T02:20:56.796Z,29.75
2019-02-20T02:23:25.344Z,31.87
2019-02-20T02:25:53.885Z,33.35
2019-02-20T02:28:22.454Z,30.15
2019-02-20T02:30:51.082Z,37.55
2019-02-20T02:33:19.783Z,33.28
2019-02-20T02:35:48.391Z,33.30
2019-02-20T02:38:17.071Z,37.05
2019-02-20T02:40:45.760Z,34.92
2019-02-20T02:43:14.342Z,34.88
2019-02-20T02:45:43.072Z,47.95
2019-02-20T02:48:11.724Z,43.85
2019-02-20T02:50:40.394Z,38.67
2019-02-20T02:53:09.517Z,45.90
2019-02-20T02:55:38.119Z,52.15
2019-02-20T02:58:06.741Z,53.15
2019-02-20T03:00:35.369Z,58.48
2019-02-20T03:03:03.879Z,45.25
2019-02-20T03:05:32.435Z,44.65
2019-02-20T03:08:00.977Z,44.87
2019-02-20T03:10:29.720Z,50.63
2019-02-20T03:12:58.305Z,40.90
2019-02-20T03:15:26.910Z,38.60
2019-02-20T03:17:55.467Z,37.15
2019-02-20T03:20:24.044Z,32.80
2019-02-20T03:22:52.662Z,36.95
2019-02-20T03:25:21.277Z,39.10
2019-02-20T03:27:49.858Z,38.70
2019-02-20T03:30:18.616Z,34.27
2019-02-20T03:32:47.203Z,33.57
2019-02-20T03:35:15.807Z,47.65
2019-02-20T03:37:44.375Z,42.80
2019-02-20T03:40:13.084Z,35.00
2019-02-20T03:42:41.645Z,35.13
2019-02-20T03:45:10.292Z,36.38
2019-02-20T03:47:38.913Z,38.00
2019-02-20T03:50:07.780Z,37.90
2019-02-20T03:52:36.436Z,33.92
2019-02-20T03:55:06.561Z,35.05
2019-02-20T03:57:35.051Z,32.17
2019-02-20T04:00:05.246Z,33.38
2019-02-20T04:02:33.836Z,39.15
2019-02-20T04:05:02.447Z,42.33
2019-02-20T04:07:31.108Z,44.08
2019-02-20T04:09:59.635Z,49.67
2019-02-20T04:12:28.206Z,44.75
2019-02-20T04:14:56.775Z,51.18
2019-02-20T04:17:25.518Z,43.15
2019-02-20T04:19:54.192Z,42.27
2019-02-20T04:22:22.848Z,42.08
2019-02-20T04:24:51.494Z,42.10
2019-02-20T04:27:19.994Z,34.88
2019-02-20T04:29:48.559Z,38.78
2019-02-20T04:32:17.250Z,36.05
2019-02-20T04:34:45.871Z,36.20
2019-02-20T04:37:14.474Z,40.83
2019-02-20T04:39:43.086Z,35.35
2019-02-20T04:42:11.690Z,41.60
2019-02-20T04:44:40.248Z,43.23
2019-02-20T04:47:08.899Z,40.70
2019-02-20T04:49:37.453Z,52.47
2019-02-20T04:52:07.039Z,38.78
2019-02-20T04:54:35.622Z,30.85
2019-02-20T04:57:04.270Z,29.32
2019-02-20T04:59:33.028Z,34.18
2019-02-20T05:02:01.613Z,43.83
2019-02-20T05:04:30.183Z,36.28
2019-02-20T05:06:58.851Z,46.02
2019-02-20T05:09:28.730Z,36.15
2019-02-20T05:11:58.631Z,39.23
2019-02-20T05:14:27.429Z,39.80
2019-02-20T05:16:56.099Z,46.50
2019-02-20T05:19:24.716Z,37.98
2019-02-20T05:21:53.296Z,42.67
2019-02-20T05:24:24.576Z,44.50
2019-02-20T05:26:52.120Z,41.20
2019-02-20T05:29:20.706Z,35.63
2019-02-20T05:31:49.351Z,42.40
2019-02-20T05:34:17.894Z,37.45
2019-02-20T05:36:46.652Z,33.53
2019-02-20T05:39:15.251Z,31.95
2019-02-20T05:41:43.950Z,39.23
2019-02-20T05:44:12.547Z,39.48
2019-02-20T05:46:41.090Z,33.30
2019-02-20T05:49:09.643Z,37.08
2019-02-20T05:51:38.344Z,40.90
2019-02-20T05:54:06.928Z,37.97
2019-02-20T05:56:35.703Z,35.68
2019-02-20T05:59:04.409Z,30.12
2019-02-20T06:01:33.031Z,33.20
2019-02-20T06:04:01.661Z,31.30
2019-02-20T06:06:30.174Z,37.53
2019-02-20T06:08:58.802Z,36.28
2019-02-20T06:11:27.366Z,39.35
2019-02-20T06:13:56.014Z,36.00
2019-02-20T06:16:24.682Z,38.33
2019-02-20T06:18:53.371Z,41.25
2019-02-20T06:21:22.654Z,38.65
2019-02-20T06:23:51.219Z,39.65
2019-02-20T06:26:19.776Z,41.42
2019-02-20T06:32:02.561Z,37.80
2019-02-20T06:34:31.174Z,33.85
2019-02-20T06:36:59.749Z,42.25
2019-02-20T06:39:28.347Z,37.42
2019-02-20T06:41:56.903Z,36.53
2019-02-20T06:44:25.521Z,40.47
2019-02-20T06:46:54.100Z,41.20
2019-02-20T06:49:22.695Z,34.03
2019-02-20T06:51:51.262Z,36.38
2019-02-20T06:54:19.818Z,38.85
2019-02-20T06:56:50.197Z,42.90
2019-02-20T06:59:18.767Z,36.15
2019-02-20T07:01:47.315Z,42.48
2019-02-20T07:04:15.904Z,36.20
2019-02-20T07:06:53.452Z,38.38
2019-02-20T07:09:31.045Z,42.73
2019-02-20T07:12:08.646Z,32.77
2019-02-20T07:14:46.336Z,34.23
2019-02-20T07:17:21.091Z,36.63
2019-02-20T07:20:04.572Z,37.40
2019-02-20T07:23:00.179Z,36.73
2019-02-20T07:25:34.648Z,33.80
2019-02-20T07:28:14.558Z,35.97
2019-02-20T07:30:43.680Z,38.10
2019-02-20T07:33:12.300Z,39.67
2019-02-20T07:35:42.087Z,35.30
2019-02-20T07:38:10.711Z,38.40
2019-02-20T07:40:39.349Z,40.90
2019-02-20T07:43:12.822Z,37.83
2019-02-20T07:45:43.075Z,37.80
2019-02-20T07:48:13.197Z,37.10
2019-02-20T07:50:43.380Z,35.33
2019-02-20T07:53:11.931Z,36.83
2019-02-20T07:55:40.571Z,34.07
2019-02-20T07:58:09.165Z,39.10
2019-02-20T08:00:39.059Z,46.00
2019-02-20T08:03:09.707Z,39.97
2019-02-20T08:05:38.333Z,37.50
2019-02-20T08:08:08.162Z,41.77
2019-02-20T08:10:36.839Z,39.73
2019-02-20T08:13:05.490Z,42.03
2019-02-20T08:15:34.193Z,43.40
2019-02-20T08:18:03.376Z,36.20
2019-02-20T08:20:31.985Z,37.07
2019-02-20T08:23:04.315Z,36.27
2019-02-20T08:25:33.873Z,42.40
2019-02-20T08:28:02.596Z,36.60
2019-02-20T08:30:31.246Z,35.13
2019-02-20T08:33:00.630Z,34.03
2019-02-20T08:35:30.816Z,39.03
2019-02-20T08:37:59.365Z,32.30
2019-02-20T08:40:27.977Z,37.90
2019-02-20T08:42:56.533Z,39.97
2019-02-20T08:45:25.955Z,37.77
2019-02-20T08:47:54.582Z,39.43
2019-02-20T08:50:23.159Z,34.00
2019-02-20T08:52:53.439Z,39.20
2019-02-20T09:20:52.147Z,38.50
2019-02-20T09:23:32.670Z,40.10
2019-02-20T09:29:21.374Z,35.17
2019-02-20T09:31:51.302Z,34.60
2019-02-20T09:34:21.351Z,34.40
2019-02-20T09:36:49.901Z,29.00
2019-02-20T09:39:33.836Z,31.20
2019-02-20T09:42:04.242Z,30.10
2019-02-20T09:44:52.831Z,30.80
2019-02-20T10:58:13.169Z,14.37
2019-02-20T11:00:42.481Z,13.37
2019-02-20T11:03:13.008Z,17.60
2019-02-20T11:05:50.273Z,13.23
2019-02-20T11:08:19.133Z,9.33
2019-02-20T11:11:40.611Z,13.30
2019-02-20T11:14:09.191Z,12.30
2019-02-20T11:16:39.201Z,18.00
2019-02-20T11:19:07.903Z,12.00
2019-02-20T11:22:09.268Z,14.67
2019-02-20T11:24:50.982Z,16.97
2019-02-20T11:27:35.389Z,13.70
2019-02-20T11:30:07.281Z,15.93
2019-02-20T11:32:38.586Z,15.63
2019-02-20T11:35:10.229Z,12.17
2019-02-20T11:37:40.568Z,15.17
2019-02-20T11:40:11.326Z,13.93
2019-02-20T11:42:41.957Z,14.30
2019-02-20T11:45:36.280Z,14.57
2019-02-20T11:48:06.627Z,12.80
2019-02-20T11:50:38.039Z,13.37
2019-02-20T11:53:07.208Z,18.47
2019-02-20T11:55:36.919Z,11.20
2019-02-20T11:58:05.741Z,11.80
2019-02-20T12:00:35.452Z,17.73
2019-02-20T12:03:04.320Z,12.73
2019-02-20T12:05:34.352Z,11.13
2019-02-20T12:08:04.095Z,13.17
2019-02-20T12:10:34.311Z,14.93
2019-02-20T12:13:05.508Z,12.07
2019-02-20T12:15:36.547Z,10.50
2019-02-20T12:18:05.134Z,13.57
2019-02-20T12:20:36.053Z,11.73
2019-02-20T12:23:07.651Z,13.60
2019-02-20T12:25:36.201Z,10.93
2019-02-20T12:28:04.949Z,13.40
2019-02-20T12:30:33.602Z,13.33
2019-02-20T12:33:05.308Z,14.47
2019-02-20T12:35:37.640Z,13.13
2019-02-20T12:38:08.413Z,17.67
2019-02-20T12:40:46.139Z,14.40
2019-02-20T12:43:15.531Z,21.77
2019-02-20T12:45:44.140Z,13.50
2019-02-20T12:48:14.280Z,13.07
2019-02-20T12:50:42.882Z,13.03
2019-02-20T12:53:11.458Z,18.30
2019-02-20T12:55:39.923Z,15.27
2019-02-20T12:58:09.031Z,15.10
2019-02-20T13:00:37.677Z,19.17
2019-02-20T13:03:07.520Z,13.77
2019-02-20T13:05:36.176Z,18.10
2019-02-20T13:08:04.892Z,17.53
2019-02-20T13:10:33.484Z,15.33
2019-02-20T13:13:06.035Z,15.17
2019-02-20T13:15:35.786Z,14.87
2019-02-20T13:18:06.033Z,19.43
2019-02-20T13:20:39.528Z,14.57
2019-02-20T13:23:09.488Z,13.50
2019-02-20T13:25:38.594Z,16.67
2019-02-20T13:28:07.196Z,14.90
2019-02-20T13:30:35.862Z,14.70
2019-02-20T13:33:07.118Z,14.77
2019-02-20T13:35:38.051Z,13.90
2019-02-20T13:38:06.576Z,19.90
2019-02-20T13:40:38.298Z,14.73
2019-02-20T13:43:09.976Z,17.30
2019-02-20T13:45:38.621Z,18.13
2019-02-20T13:48:07.685Z,17.80
2019-02-20T13:50:37.309Z,19.67
2019-02-20T13:53:06.610Z,19.47
2019-02-20T13:55:36.652Z,16.13
2019-02-20T13:58:05.324Z,19.20
2019-02-20T14:00:33.909Z,14.27
2019-02-20T14:03:03.296Z,13.83
2019-02-20T14:05:31.922Z,21.87
2019-02-20T14:08:01.219Z,21.17
2019-02-20T14:10:31.581Z,17.53
2019-02-20T14:13:01.477Z,14.33
2019-02-20T14:15:30.339Z,21.03
2019-02-20T14:18:02.702Z,16.87
2019-02-20T14:20:32.086Z,24.43
2019-02-20T14:23:03.946Z,15.33
2019-02-20T14:25:32.693Z,28.63
2019-02-20T14:28:01.277Z,17.40
2019-02-20T14:30:30.842Z,20.63
2019-02-20T14:33:00.768Z,18.00
2019-02-20T14:35:30.807Z,20.60
2019-02-20T14:38:00.559Z,19.67
2019-02-20T14:40:30.754Z,16.03
2019-02-20T14:43:02.257Z,22.93
2019-02-20T14:45:34.133Z,15.63
2019-02-20T14:48:02.883Z,19.23
2019-02-20T14:50:34.566Z,18.47
2019-02-20T14:53:03.240Z,16.30
2019-02-20T14:55:42.258Z,19.80
2019-02-20T14:58:10.946Z,20.90
2019-02-20T15:00:40.181Z,29.03
2019-02-20T15:03:08.848Z,24.63
2019-02-20T15:05:39.069Z,17.77
2019-02-20T15:08:07.666Z,23.23
2019-02-20T15:10:37.324Z,17.53
2019-02-20T15:13:06.019Z,18.33
2019-02-20T15:15:34.657Z,19.43
2019-02-20T15:18:04.283Z,20.60
2019-02-20T15:20:35.700Z,18.50
2019-02-20T15:23:04.745Z,22.20
2019-02-20T15:25:35.125Z,21.87
2019-02-20T15:28:04.709Z,20.27
2019-02-20T15:30:33.396Z,18.13
2019-02-20T15:33:02.781Z,18.97
2019-02-20T15:35:31.389Z,17.70
2019-02-20T15:38:01.183Z,18.27
2019-02-20T15:40:30.476Z,20.83
2019-02-20T15:43:01.620Z,19.40
2019-02-20T15:45:30.844Z,18.70
2019-02-20T15:48:00.117Z,19.80
2019-02-20T15:50:30.046Z,18.40
2019-02-20T15:52:58.757Z,22.10
2019-02-20T15:55:28.339Z,20.17
2019-02-20T15:57:57.025Z,24.20
2019-02-20T16:00:26.740Z,21.00
2019-02-20T16:02:58.096Z,21.57
2019-02-20T16:05:28.070Z,17.53
2019-02-20T16:07:58.219Z,17.30
2019-02-20T16:10:28.443Z,19.27
2019-02-20T16:12:59.747Z,22.90
2019-02-20T16:15:28.900Z,20.70
2019-02-20T16:17:59.278Z,24.63
2019-02-20T16:20:27.850Z,19.70
2019-02-20T16:23:00.007Z,16.77
2019-02-20T16:25:31.064Z,27.17
2019-02-20T16:28:00.921Z,15.70
2019-02-20T16:30:30.628Z,18.50
2019-02-20T16:33:00.770Z,21.23
2019-02-20T16:35:30.264Z,20.03
2019-02-20T16:38:00.977Z,16.40
2019-02-20T16:40:30.260Z,19.13
2019-02-20T16:43:03.805Z,19.33
2019-02-20T16:45:32.279Z,19.93
2019-02-20T16:48:02.755Z,19.83
2019-02-20T16:50:31.938Z,21.37
2019-02-20T16:53:02.200Z,20.20
2019-02-20T16:55:30.879Z,20.80
2019-02-20T16:57:59.470Z,21.87
2019-02-20T17:00:30.254Z,19.80
2019-02-20T17:03:00.016Z,17.10
2019-02-20T17:05:30.009Z,21.43
2019-02-20T17:07:58.736Z,22.30
2019-02-20T17:10:28.043Z,18.57
2019-02-20T17:12:58.319Z,26.43
2019-02-20T17:15:27.952Z,26.17
2019-02-20T17:17:58.374Z,25.72
2019-02-20T17:20:27.127Z,18.60
2019-02-20T17:22:58.031Z,19.87
2019-02-20T17:25:29.921Z,27.10
2019-02-20T17:28:05.558Z,24.27
2019-02-20T17:30:29.537Z,20.95
2019-02-20T17:32:58.237Z,25.60
2019-02-20T17:35:28.594Z,24.30
2019-02-20T17:37:57.148Z,21.70
2019-02-20T17:40:25.940Z,26.90
2019-02-20T17:42:55.343Z,23.80
2019-02-20T17:45:27.454Z,26.35
2019-02-20T17:47:59.814Z,23.73
2019-02-20T17:50:29.651Z,32.28
2019-02-20T17:52:58.965Z,23.37
2019-02-20T17:55:28.404Z,28.23
2019-02-20T17:57:57.344Z,27.32
2019-02-20T18:00:28.921Z,30.00
2019-02-20T18:03:00.033Z,22.57
2019-02-20T18:05:28.935Z,28.05
2019-02-20T18:07:57.991Z,24.10
2019-02-20T18:10:29.416Z,25.70
2019-02-20T18:13:01.259Z,29.82
2019-02-20T18:15:31.217Z,24.23
2019-02-20T18:18:00.106Z,26.40
2019-02-20T18:20:29.369Z,29.67
2019-02-20T18:22:59.852Z,29.30
2019-02-20T18:25:28.326Z,27.55
2019-02-20T18:27:56.921Z,23.17
2019-02-20T18:30:25.667Z,31.73
2019-02-20T18:32:54.451Z,27.33
2019-02-20T18:35:23.167Z,32.05
2019-02-20T18:37:52.221Z,28.30
2019-02-20T18:40:23.205Z,27.82
2019-02-20T18:42:51.854Z,32.75
2019-02-20T18:45:20.432Z,36.07
2019-02-20T18:47:49.078Z,33.05
